Latest Weather Observations for Merimbula

IDN60801

Issued at 4:33 pm EDT Thursday 12 December 2019 (issued every 10 minutes, with the page automatically refreshed every 10 minutes)

About weather observations | Map of weather stations | Latest weather observations for NSW | Other Formats
Station Details ID: 069147 Name: MERIMBULA AIRPORT AWS Lat: -36.91 Lon: 149.90 Height: 1.5 m
Data from the previous 72 hours. | See also: Recent months at Merimbula
Date/Time
EDT
Temp
°C
App
Temp
°C
Dew
Point
°C
Rel
Hum
%
Delta-T
°C
Wind Press
QNH
hPa
Press
MSL
hPa
Rain since
9am
mm
Dir  Spd
km/h
Gust
km/h
Spd
kts
Gust
kts
12/04:30pm 19.5 15.9 13.0 66 3.7 SE 24 39 13 21 1012.4 1012.4 0.0
12/04:00pm 19.1 15.7 12.6 66 3.6 SE 22 35 12 19 1012.5 1012.5 0.0
12/03:30pm 19.3 15.4 12.1 63 4.0 SE 24 39 13 21 1012.7 1012.7 0.0
12/03:00pm 19.8 15.7 11.3 58 4.7 SE 24 35 13 19 1012.8 1012.8 0.0
12/02:30pm 21.9 18.8 12.2 54 5.5 SE 20 35 11 19 1012.6 1012.6 0.0
12/02:00pm 22.0 18.5 12.3 54 5.5 SE 22 35 12 19 1012.8 1012.8 0.0
12/01:30pm 22.6 19.4 11.4 49 6.2 ESE 19 30 10 16 1012.9 1012.9 0.0
12/01:00pm 21.4 19.0 12.5 57 5.0 E 17 26 9 14 1013.3 1013.3 0.0
12/12:30pm 20.1 17.3 11.3 57 4.8 ESE 17 30 9 16 1013.9 1013.9 0.0
12/12:00pm 21.4 19.0 11.4 53 5.5 E 15 26 8 14 1014.0 1014.0 0.0
12/11:30am 20.7 17.9 11.3 55 5.2 E 17 28 9 15 1014.2 1014.2 0.0
12/11:00am 19.9 16.8 10.3 54 5.2 E 17 26 9 14 1014.4 1014.4 0.0
12/10:30am 19.8 17.2 9.4 51 5.5 ESE 13 20 7 11 1014.5 1014.5 0.0
12/10:00am 19.2 17.1 9.7 54 5.0 E 11 17 6 9 1014.6 1014.6 0.0
12/09:30am 18.5 15.9 9.3 55 4.8 E 13 22 7 12 1014.7 1014.7 0.0
12/09:00am 18.1 16.1 10.0 59 4.3 E 11 17 6 9 1015.0 1015.0 0.0
12/08:30am 17.6 16.1 9.2 58 4.4 E 7 13 4 7 1015.1 1015.1 0.0
12/08:00am 16.8 16.7 9.5 62 3.8 CALM 0 0 0 0 1015.1 1015.1 0.0
12/07:30am 14.3 14.4 10.1 76 2.2 CALM 0 0 0 0 1015.1 1015.1 0.0
12/07:00am 12.9 13.0 10.3 84 1.3 CALM 0 0 0 0 1015.1 1015.1 0.0
12/06:30am 10.8 9.6 9.4 91 0.7 SSW 6 7 3 4 1014.9 1014.9 0.0
12/06:00am 9.6 7.8 8.0 90 0.8 SSW 7 9 4 5 1015.0 1015.0 0.0
12/05:30am 9.1 7.3 7.2 88 0.9 SW 6 6 3 3 1014.9 1014.9 0.0
12/05:00am 9.5 8.5 7.3 86 1.0 WNW 2 7 1 4 1014.8 1014.8 0.0
12/04:30am 10.1 9.6 7.7 85 1.2 CALM 0 0 0 0 1014.8 1014.8 0.0
12/04:00am 10.8 9.9 7.9 82 1.4 SW 2 9 1 5 1014.8 1014.8 0.0
12/03:30am 11.8 10.1 8.5 80 1.6 NW 7 9 4 5 1014.7 1014.7 0.0
12/03:00am 12.3 10.9 7.4 72 2.4 SSW 4 7 2 4 1014.9 1014.9 0.0
12/02:30am 13.5 11.4 8.1 70 2.7 SSW 9 15 5 8 1015.2 1015.2 0.0
12/02:00am 14.2 12.2 8.8 70 2.7 SSW 9 13 5 7 1015.4 1015.4 0.0
12/01:30am 15.1 13.5 8.8 66 3.2 S 7 11 4 6 1015.8 1015.8 0.0
12/01:00am 15.7 13.9 9.6 67 3.2 SSW 9 13 5 7 1016.1 1016.1 0.0
12/12:30am 15.8 13.7 9.9 68 3.1 S 11 15 6 8 1016.4 1016.4 0.0
12/12:00am 15.9 14.2 10.0 68 3.1 S 9 13 5 7 1016.7 1016.7 0.0
 
Date/Time
EDT
Temp
°C
App
Temp
°C
Dew
Point
°C
Rel
Hum
%
Delta-T
°C
Wind Press
QNH
hPa
Press
MSL
hPa
Rain since
9am
mm
Dir  Spd
km/h
Gust
km/h
Spd
kts
Gust
kts
11/11:30pm 16.1 14.9 10.4 69 3.0 S 7 11 4 6 1016.8 1016.8 0.0
11/11:00pm 16.3 14.3 10.2 67 3.2 S 11 17 6 9 1016.8 1016.8 0.0
11/10:30pm 16.4 14.9 10.5 68 3.1 SSE 9 13 5 7 1016.8 1016.8 0.0
11/10:00pm 16.5 14.7 11.0 70 2.9 SSE 11 17 6 9 1016.8 1016.8 0.0
11/09:30pm 16.6 15.3 11.1 70 3.0 SSE 9 15 5 8 1016.7 1016.7 0.0
11/09:00pm 16.7 14.6 11.0 69 3.1 SSE 13 20 7 11 1016.4 1016.4 0.0
11/08:30pm 16.7 14.2 11.2 70 3.0 S 15 20 8 11 1016.2 1016.2 0.0
11/08:00pm 16.8 14.7 11.3 70 3.0 SSE 13 20 7 11 1016.0 1016.0 0.0
11/07:30pm 16.7 15.2 11.8 73 2.7 SSE 11 17 6 9 1015.7 1015.7 0.0
11/07:00pm 17.0 14.6 11.5 70 3.0 SSE 15 22 8 12 1015.5 1015.5 0.0
11/06:30pm 17.2 14.7 11.0 67 3.3 SSE 15 24 8 13 1015.3 1015.3 0.0
11/06:00pm 17.4 15.2 10.8 65 3.5 SE 13 24 7 13 1015.1 1015.1 0.0
11/05:30pm 17.8 15.4 11.4 66 3.5 SE 15 26 8 14 1015.1 1015.1 0.0
11/05:00pm 18.0 15.3 11.6 66 3.5 SE 17 24 9 13 1015.2 1015.2 0.0
11/04:30pm 18.1 15.2 11.0 63 3.8 SE 17 26 9 14 1015.3 1015.3 0.0
11/04:00pm 18.9 16.1 11.5 62 4.1 SE 17 28 9 15 1015.3 1015.3 0.0
11/03:30pm 19.6 17.1 10.9 57 4.7 ESE 15 24 8 13 1015.4 1015.4 0.0
11/03:00pm 20.7 17.9 11.3 55 5.2 ESE 17 28 9 15 1015.6 1015.6 0.0
11/02:30pm 19.9 17.1 11.4 58 4.7 SE 17 28 9 15 1015.8 1015.8 0.0
11/02:00pm 19.3 16.3 10.8 58 4.6 SE 17 24 9 13 1015.8 1015.8 0.0
11/01:30pm 19.8 17.0 11.3 58 4.7 SE 17 24 9 13 1016.0 1016.0 0.0
11/01:00pm 20.6 17.7 11.0 54 5.3 ESE 17 24 9 13 1016.1 1016.1 0.0
11/12:30pm 20.4 17.8 10.8 54 5.2 ESE 15 26 8 14 1016.3 1016.3 0.0
11/12:00pm 20.3 17.5 10.1 52 5.5 ESE 15 24 8 13 1016.6 1016.6 0.0
11/11:30am 21.1 18.6 11.2 53 5.5 ESE 15 24 8 13 1016.8 1016.8 0.0
11/11:00am 20.6 18.1 9.8 50 5.8 E 13 22 7 12 1016.9 1016.9 0.0
11/10:30am 19.9 17.3 9.5 51 5.5 ESE 13 20 7 11 1017.1 1017.1 0.0
11/10:00am 18.9 16.3 9.4 54 5.0 ESE 13 19 7 10 1017.3 1017.3 0.0
11/09:30am 18.6 16.0 9.4 55 4.8 ESE 13 20 7 11 1017.5 1017.5 0.0
11/09:00am 17.7 15.3 10.1 61 4.0 SE 13 20 7 11 1017.7 1017.7 0.0
11/08:30am 17.6 16.0 10.2 62 3.9 SE 9 15 5 8 1017.8 1017.8 0.0
11/08:00am 16.8 15.8 10.2 65 3.5 S 6 13 3 7 1017.8 1017.8 0.0
11/07:30am 16.4 15.3 10.5 68 3.1 SW 7 9 4 5 1017.7 1017.7 0.0
11/07:00am 15.7 14.6 10.0 69 3.0 SW 6 9 3 5 1017.6 1017.6 0.0
11/06:30am 14.8 14.9 10.0 73 2.5 CALM 0 0 0 0 1017.5 1017.5 0.0
11/06:00am 14.4 14.3 9.6 73 2.5 CALM 0 0 0 0 1017.5 1017.5 0.0
11/05:30am 14.2 13.9 8.8 70 2.7 CALM 0 0 0 0 1017.4 1017.4 0.0
11/05:00am 14.0 13.7 8.8 71 2.6 CALM 0 0 0 0 1017.4 1017.4 0.0
11/04:30am 13.9 12.5 8.7 71 2.6 SSW 6 7 3 4 1017.2 1017.2 0.0
11/04:00am 13.9 12.6 9.3 74 2.3 WSW 6 7 3 4 1017.3 1017.3 0.0
11/03:30am 13.2 13.1 9.3 77 2.0 CALM 0 0 0 0 1017.5 1017.5 0.0
11/03:00am 12.5 12.1 8.4 76 2.0 CALM 0 0 0 0 1017.7 1017.7 0.0
11/02:30am 13.2 12.9 8.7 74 2.3 CALM 0 6 0 3 1018.1 1018.1 0.0
11/02:00am 13.6 12.2 8.7 72 2.5 SW 6 9 3 5 1018.4 1018.4 0.0
11/01:30am 14.1 13.5 8.9 71 2.6 WSW 2 7 1 4 1018.7 1018.7 0.0
11/01:00am 14.4 13.0 8.8 69 2.8 SW 6 9 3 5 1019.1 1019.1 0.0
11/12:30am 14.5 12.9 8.7 68 2.9 SSW 7 11 4 6 1019.3 1019.3 0.0
11/12:00am 14.6 13.2 8.8 68 2.9 SW 6 7 3 4 1019.5 1019.5 0.0
 
Date/Time
EDT
Temp
°C
App
Temp
°C
Dew
Point
°C
Rel
Hum
%
Delta-T
°C
Wind Press
QNH
hPa
Press
MSL
hPa
Rain since
9am
mm
Dir  Spd
km/h
Gust
km/h
Spd
kts
Gust
kts
10/11:30pm 15.1 13.1 8.6 65 3.3 SW 9 15 5 8 1019.5 1019.5 0.0
10/11:00pm 15.1 13.0 8.3 64 3.4 SW 9 17 5 9 1019.5 1019.5 0.0
10/10:30pm 15.3 13.1 7.8 61 3.7 SSW 9 11 5 6 1019.5 1019.5 0.0
10/10:00pm 15.6 13.3 7.6 59 4.0 S 9 11 5 6 1019.5 1019.5 0.0
10/09:30pm 16.3 12.2 7.8 57 4.3 S 19 30 10 16 1019.2 1019.2 0.0
10/09:00pm 16.4 12.9 8.6 60 4.0 SSE 17 24 9 13 1018.6 1018.6 0.0
10/08:30pm 17.4 13.3 8.0 54 4.8 S 19 28 10 15 1018.0 1018.0 0.0
10/08:00pm 18.1 13.6 8.7 54 4.9 S 22 35 12 19 1017.3 1017.3 0.0
10/07:30pm 19.3 14.7 9.5 53 5.2 S 24 35 13 19 1016.5 1016.5 0.0
10/07:00pm 20.9 17.3 9.8 49 6.0 S 19 30 10 16 1015.8 1015.8 0.0
10/06:30pm 22.5 19.0 8.6 41 7.4 S 17 30 9 16 1014.8 1014.8 0.0
10/06:00pm 24.3 19.7 8.3 36 8.5 SSW 22 39 12 21 1014.0 1014.0 0.0
10/05:30pm 26.3 22.6 9.6 35 9.2 S 19 28 10 15 1013.3 1013.3 0.0
10/05:00pm 26.7 23.2 10.8 37 9.0 SSE 20 30 11 16 1012.9 1012.9 0.0
10/04:30pm 26.8 23.5 11.7 39 8.6 SSE 20 32 11 17 1012.6 1012.6 0.0
10/04:00pm 27.4 23.9 12.2 39 8.8 SSE 22 33 12 18 1012.4 1012.4 0.0
10/03:30pm 24.9 21.6 15.0 54 5.9 SE 26 37 14 20 1012.1 1012.1 0.0
10/03:00pm 21.8 18.5 14.9 65 4.1 SE 26 39 14 21 1012.5 1012.5 0.0
10/02:30pm 22.0 19.5 15.1 65 4.1 ESE 22 37 12 20 1012.6 1012.6 0.0
10/02:00pm 22.2 20.6 15.1 64 4.2 E 17 26 9 14 1012.7 1012.7 0.0
10/01:30pm 22.0 20.5 15.4 66 3.9 ESE 17 26 9 14 1012.8 1012.8 0.0
10/01:00pm 22.1 21.4 15.5 66 3.9 E 13 20 7 11 1013.1 1013.1 0.0
10/12:30pm 21.8 20.7 15.4 67 3.8 ESE 15 20 8 11 1013.3 1013.3 0.0
10/12:00pm 21.9 20.5 15.5 67 3.8 ESE 17 28 9 15 1013.6 1013.6 0.0
10/11:30am 22.5 22.0 15.8 66 4.0 ESE 13 20 7 11 1013.7 1013.7 0.0
10/11:00am 21.4 20.3 15.3 68 3.6 ESE 15 22 8 12 1013.9 1013.9 0.0
10/10:30am 21.3 20.8 16.0 72 3.2 E 13 20 7 11 1014.0 1014.0 0.0
10/10:00am 20.4 19.8 15.6 74 2.9 E 13 17 7 9 1014.0 1014.0 0.0
10/09:30am 20.6 20.6 15.2 71 3.2 E 9 15 5 8 1014.1 1014.1 0.0
10/09:00am 20.8 20.2 14.5 67 3.7 E 11 17 6 9 1014.1 1014.1 0.0
10/08:30am 21.8 21.7 15.9 69 3.5 ESE 11 17 6 9 1014.3 1014.3 0.0
10/08:00am 21.0 22.2 16.0 73 3.0 ESE 4 11 2 6 1014.3 1014.3 0.0
10/07:30am 19.7 21.8 16.3 81 2.0 CALM 0 0 0 0 1014.0 1014.0 0.0
10/07:00am 18.7 21.2 17.2 91 0.9 CALM 0 0 0 0 1013.7 1013.7 0.0
10/06:30am 17.2 19.0 15.4 89 1.1 CALM 0 0 0 0 1013.3 1013.3 0.0
10/06:00am 17.2 18.9 15.2 88 1.2 CALM 0 0 0 0 1012.9 1012.9 0.0
10/05:51am 17.5 19.2 15.3 87 1.3 CALM 0 0 0 0 1012.9 1012.9 0.0
10/05:30am 18.3 20.0 16.3 88 1.2 SW 2 7 1 4 1012.7 1012.7 0.0
10/05:00am 18.7 18.9 16.7 88 1.2 SSW 11 17 6 9 1012.2 1012.2 0.0
10/04:30am 18.9 21.2 16.7 87 1.3 CALM 0 0 0 0 1011.5 1011.5 0.0
10/04:00am 18.8 19.8 16.4 86 1.4 SSW 6 9 3 5 1011.6 1011.6 0.0
10/03:30am 19.6 21.0 17.7 89 1.2 WNW 7 11 4 6 1011.7 1011.7 0.0
10/03:00am 19.3 20.6 17.6 90 1.0 NW 7 11 4 6 1011.8 1011.8 0.0
10/02:30am 19.2 20.5 17.5 90 1.0 NNW 7 9 4 5 1012.3 1012.3 0.0
10/02:00am 19.3 20.8 18.0 92 0.8 NW 7 11 4 6 1012.9 1012.9 0.0
10/01:30am 18.9 20.3 17.7 93 0.7 NNW 7 13 4 7 1013.1 1013.1 0.0
10/01:22am 18.9 20.4 17.7 93 0.7 NW 6 11 3 6 1013.3 1013.3 0.0
10/01:18am 19.0 20.0 17.8 93 0.7 NNW 9 19 5 10 1013.3 1013.3 0.0
10/01:00am 18.0 19.9 16.7 92 0.8 N 2 9 1 5 1013.6 1013.6 0.0
10/12:57am 17.6 19.6 16.1 91 0.9 CALM 0 6 0 3 1013.7 1013.7 0.0
10/12:30am 17.6 19.6 15.9 90 1.0 CALM 0 0 0 0 1014.1 1014.1 0.0
10/12:00am 18.2 20.4 16.5 90 1.0 CALM 0 0 0 0 1014.4 1014.4 0.0
 
Date/Time
EDT
Temp
°C
App
Temp
°C
Dew
Point
°C
Rel
Hum
%
Delta-T
°C
Wind Press
QNH
hPa
Press
MSL
hPa
Rain since
9am
mm
Dir  Spd
km/h
Gust
km/h
Spd
kts
Gust
kts
09/11:30pm 17.8 19.7 15.8 88 1.2 CALM 0 0 0 0 1014.8 1014.8 0.0
09/11:00pm 18.2 20.1 15.8 86 1.4 CALM 0 0 0 0 1015.0 1015.0 0.0
09/10:30pm 19.4 22.0 17.4 88 1.2 CALM 0 0 0 0 1015.3 1015.3 0.0
09/10:00pm 19.6 21.0 17.4 87 1.3 NE 6 7 3 4 1015.3 1015.3 0.0
09/09:30pm 19.9 21.3 17.3 85 1.6 NE 6 7 3 4 1015.4 1015.4 0.0
09/09:00pm 20.3 21.5 17.3 83 1.8 NE 7 11 4 6 1015.4 1015.4 0.0
09/08:30pm 20.7 20.8 17.5 82 2.0 NE 13 19 7 10 1015.1 1015.1 0.0
09/08:00pm 21.1 21.2 17.5 80 2.2 NE 13 20 7 11 1015.1 1015.1 0.0
09/07:30pm 21.9 21.7 17.7 77 2.6 NE 15 26 8 14 1014.8 1014.8 0.0
09/07:00pm 22.4 22.3 17.8 75 2.9 NE 15 26 8 14 1014.5 1014.5 0.0
09/06:30pm 22.4 22.0 18.0 76 2.7 NNE 17 32 9 17 1014.2 1014.2 0.0
09/06:00pm 22.4 21.6 18.0 76 2.7 NNE 19 32 10 17 1014.1 1014.1 0.0
09/05:30pm 22.3 20.9 17.9 76 2.7 NNE 22 41 12 22 1013.8 1013.8 0.0
09/05:00pm 23.1 22.1 18.0 73 3.2 NE 20 33 11 18 1013.9 1013.9 0.0

Other formats

Comma delimited format used in spreadsheet applications
http://www.bom.gov.au/fwo/IDN60801/IDN60801.95929.axf

JavaScript Object Notation format (JSON) in row-major order
http://www.bom.gov.au/fwo/IDN60801/IDN60801.95929.json

Data quality

Most of these data are generated automatically and are frequently updated. Quality checks on data are not normally performed. It is possible for incorrect values to appear. Refer to information at About Latest Weather Observations and please check the disclaimer before using these data.